Time;durP1;ratioP1;P1;durP2;ratioP2;P2;SDS_P1;SDS_P2;PMS_P1;PMS_P2;Temp;Humidity;BMP_temperature;BMP_pressure;BME280_temperature;BME280_humidity;BME280_pressure;Samples;Min_cycle;Max_cycle;Signal;HPM_P1;HPM_P2
2024/01/13 00:00:08;;;;;;;37.70;20.40;;;1.30;99.90;;;;;;5031694;28;20041;-49
2024/01/13 00:02:33;;;;;;;41.55;21.52;;;1.30;99.90;;;;;;5031801;28;20507;-49
2024/01/13 00:04:59;;;;;;;39.75;20.20;;;1.20;99.90;;;;;;5031300;28;20025;-50
2024/01/13 00:07:24;;;;;;;39.20;20.25;;;1.10;99.90;;;;;;5031422;28;20036;-47
2024/01/13 00:09:50;;;;;;;34.13;19.92;;;1.10;99.90;;;;;;5031443;28;20469;-48
2024/01/13 00:12:16;;;;;;;37.05;20.75;;;1.10;99.90;;;;;;5031427;28;20026;-53
2024/01/13 00:14:41;;;;;;;39.97;21.40;;;1.20;99.90;;;;;;5014350;28;20362;-54
2024/01/13 00:17:07;;;;;;;35.95;20.80;;;1.20;99.90;;;;;;5032463;28;20065;-49
2024/01/13 00:19:32;;;;;;;36.60;19.92;;;1.20;99.90;;;;;;5031472;28;20034;-51
2024/01/13 00:21:58;;;;;;;41.38;21.10;;;1.20;99.90;;;;;;5031322;28;20033;-48
2024/01/13 00:24:23;;;;;;;38.83;20.23;;;1.10;99.90;;;;;;5031368;28;20025;-49
2024/01/13 00:26:49;;;;;;;37.42;19.60;;;1.10;99.90;;;;;;5031362;28;20029;-48
2024/01/13 00:29:14;;;;;;;36.65;19.50;;;1.10;99.90;;;;;;5031464;28;20052;-49
2024/01/13 00:31:40;;;;;;;33.55;19.00;;;1.10;99.90;;;;;;5031621;28;20025;-53
2024/01/13 00:34:05;;;;;;;39.83;21.55;;;1.00;99.90;;;;;;5031120;28;20025;-49
2024/01/13 00:36:31;;;;;;;39.33;19.98;;;1.00;99.90;;;;;;5031191;28;20496;-49
2024/01/13 00:38:56;;;;;;;37.42;21.52;;;1.10;99.90;;;;;;5031427;28;20535;-49
2024/01/13 00:41:22;;;;;;;36.80;20.10;;;1.20;99.90;;;;;;5031412;28;20034;-50
2024/01/13 00:43:47;;;;;;;35.60;21.08;;;1.20;99.90;;;;;;5031524;28;20097;-49
2024/01/13 00:46:13;;;;;;;42.25;21.90;;;1.20;99.90;;;;;;5031000;28;20025;-51
2024/01/13 00:48:38;;;;;;;38.92;22.77;;;1.20;99.90;;;;;;5034551;28;20026;-49
2024/01/13 00:51:04;;;;;;;40.22;22.15;;;1.20;99.90;;;;;;5035020;28;20083;-47
2024/01/13 00:53:31;;;;;;;88.07;43.97;;;1.10;99.90;;;;;;5035309;28;20108;-48
2024/01/13 00:55:57;;;;;;;72.53;35.92;;;1.10;99.90;;;;;;5035160;28;20433;-52
2024/01/13 00:58:22;;;;;;;39.03;23.23;;;1.10;99.90;;;;;;5017616;28;20022;-53
2024/01/13 01:00:47;;;;;;;42.88;24.55;;;1.20;99.90;;;;;;5017404;28;20083;-50
2024/01/13 01:03:13;;;;;;;48.65;25.08;;;1.10;99.90;;;;;;5034971;28;20452;-54
2024/01/13 01:05:38;;;;;;;43.63;21.88;;;1.20;99.90;;;;;;5034580;28;20108;-48
2024/01/13 01:08:04;;;;;;;45.75;24.05;;;1.10;99.90;;;;;;5035032;28;20477;-48
2024/01/13 01:10:30;;;;;;;41.95;24.83;;;1.10;99.90;;;;;;5035152;28;20044;-47
2024/01/13 01:12:55;;;;;;;43.17;23.77;;;1.10;99.90;;;;;;5034945;28;20109;-55
2024/01/13 01:15:21;;;;;;;48.20;25.02;;;1.20;99.90;;;;;;5034501;28;20405;-47
2024/01/13 01:17:46;;;;;;;44.75;23.15;;;1.10;99.90;;;;;;5034926;28;20100;-51
2024/01/13 01:20:12;;;;;;;47.40;23.02;;;1.20;99.90;;;;;;5034495;28;20037;-54
2024/01/13 01:22:37;;;;;;;48.53;24.98;;;1.20;99.90;;;;;;5034788;28;20025;-48
2024/01/13 01:25:03;;;;;;;45.05;23.92;;;1.20;99.90;;;;;;5016622;28;20378;-50
2024/01/13 01:27:28;;;;;;;44.65;23.63;;;1.20;99.90;;;;;;5034616;28;20032;-48
2024/01/13 01:29:54;;;;;;;46.17;24.58;;;1.10;99.90;;;;;;5034657;28;20029;-50
2024/01/13 01:32:19;;;;;;;43.95;23.17;;;1.10;99.90;;;;;;5034737;28;20040;-47
2024/01/13 01:34:45;;;;;;;41.15;24.20;;;1.00;99.90;;;;;;5034760;28;20017;-47
2024/01/13 01:37:10;;;;;;;43.95;25.77;;;1.10;99.90;;;;;;5034439;28;20029;-48
2024/01/13 01:39:36;;;;;;;47.20;25.13;;;1.10;99.90;;;;;;5034380;28;20048;-48
2024/01/13 01:42:01;;;;;;;40.95;24.50;;;1.20;99.90;;;;;;5016633;28;20095;-48
2024/01/13 01:44:27;;;;;;;43.03;24.02;;;1.10;99.90;;;;;;5034256;28;20021;-49
2024/01/13 01:46:54;;;;;;;44.67;24.77;;;1.10;99.90;;;;;;5034536;28;20033;-50
2024/01/13 01:49:19;;;;;;;50.88;24.75;;;1.20;99.90;;;;;;5034168;28;20017;-49
2024/01/13 01:51:45;;;;;;;47.15;25.23;;;1.00;99.90;;;;;;5034396;28;20477;-49
2024/01/13 01:54:11;;;;;;;45.25;24.50;;;1.00;99.90;;;;;;5016256;28;20444;-55
2024/01/13 01:56:38;;;;;;;51.42;25.08;;;1.00;99.90;;;;;;5034044;28;20064;-53
2024/01/13 01:59:05;;;;;;;47.50;24.90;;;1.00;99.90;;;;;;5033416;28;20037;-50
2024/01/13 02:01:31;;;;;;;46.67;24.92;;;1.10;99.90;;;;;;5053914;23;20042;-48
2024/01/13 02:03:57;;;;;;;51.05;26.25;;;1.00;99.90;;;;;;5033529;28;20036;-49
2024/01/13 02:06:23;;;;;;;47.97;26.30;;;1.00;99.90;;;;;;5025629;28;20029;-47
2024/01/13 02:08:49;;;;;;;45.88;24.25;;;1.00;99.90;;;;;;5014419;28;20076;-50
2024/01/13 02:11:14;;;;;;;46.70;25.08;;;1.00;99.90;;;;;;5014202;28;20028;-46
2024/01/13 02:13:42;;;;;;;46.15;25.00;;;0.90;99.90;;;;;;5014380;28;20025;-47
2024/01/13 02:16:08;;;;;;;48.95;26.08;;;0.90;99.90;;;;;;5015178;28;20397;-48
2024/01/13 02:18:34;;;;;;;49.42;25.98;;;0.90;99.90;;;;;;5014923;28;20025;-47
2024/01/13 02:20:59;;;;;;;46.75;24.20;;;0.80;99.90;;;;;;5014115;28;20034;-51
2024/01/13 02:23:25;;;;;;;57.63;32.08;;;0.80;99.90;;;;;;5014435;28;20413;-50
2024/01/13 02:25:50;;;;;;;130.77;64.10;;;0.80;99.90;;;;;;5014571;28;20096;-49
2024/01/13 02:28:17;;;;;;;85.88;45.05;;;0.80;99.90;;;;;;5014202;28;20025;-54
2024/01/13 02:30:42;;;;;;;57.17;31.85;;;0.90;99.90;;;;;;5013895;28;20098;-52
2024/01/13 02:33:08;;;;;;;48.55;26.00;;;0.90;99.90;;;;;;5013694;28;20109;-50
2024/01/13 02:35:33;;;;;;;43.90;24.13;;;0.90;99.90;;;;;;5013549;28;20537;-50
2024/01/13 02:37:59;;;;;;;44.53;24.80;;;0.80;99.90;;;;;;5018619;28;20081;-54
2024/01/13 02:40:24;;;;;;;50.05;25.00;;;0.80;99.90;;;;;;5021234;28;20030;-54
2024/01/13 02:42:50;;;;;;;47.72;26.23;;;0.80;99.90;;;;;;5021512;28;20100;-53
2024/01/13 02:45:15;;;;;;;49.08;27.27;;;0.80;99.90;;;;;;5020914;28;20038;-54
2024/01/13 02:47:47;;;;;;;44.10;23.70;;;0.70;99.90;;;;;;5018122;28;20061;-50
2024/01/13 02:50:16;;;;;;;41.58;24.85;;;0.80;99.90;;;;;;5013952;28;20076;-49
2024/01/13 02:52:44;;;;;;;50.40;25.38;;;0.80;99.90;;;;;;4996600;28;20025;-49
2024/01/13 02:55:09;;;;;;;49.40;26.67;;;0.70;99.90;;;;;;5013285;28;20065;-49
2024/01/13 02:57:35;;;;;;;51.38;26.30;;;0.70;99.90;;;;;;5013619;28;20474;-50
2024/01/13 03:00:01;;;;;;;46.33;24.95;;;0.70;99.90;;;;;;5013374;28;20474;-49
2024/01/13 03:02:26;;;;;;;47.10;25.33;;;0.70;99.90;;;;;;5012838;28;20034;-54
2024/01/13 03:04:52;;;;;;;53.20;27.45;;;0.70;99.90;;;;;;4995542;28;20097;-47
2024/01/13 03:07:17;;;;;;;45.28;25.10;;;0.70;99.90;;;;;;5013115;28;20580;-46
2024/01/13 03:09:43;;;;;;;45.72;26.05;;;0.70;99.90;;;;;;5012865;28;20036;-48
2024/01/13 03:12:08;;;;;;;46.72;25.48;;;0.70;99.90;;;;;;5012741;28;20100;-48
2024/01/13 03:14:33;;;;;;;51.63;27.67;;;0.60;99.90;;;;;;5012763;28;20351;-51
2024/01/13 03:16:59;;;;;;;50.45;25.92;;;0.70;99.90;;;;;;5012821;28;20458;-48
2024/01/13 03:19:24;;;;;;;51.08;26.58;;;0.60;99.90;;;;;;5012805;28;20029;-48
2024/01/13 03:21:50;;;;;;;52.85;26.33;;;0.60;99.90;;;;;;5012844;28;20113;-50
2024/01/13 03:24:15;;;;;;;52.35;27.50;;;0.60;99.90;;;;;;5012557;28;20030;-46
2024/01/13 03:26:41;;;;;;;45.92;26.60;;;0.60;99.90;;;;;;5012626;28;20444;-50
2024/01/13 03:29:06;;;;;;;55.42;27.45;;;0.60;99.90;;;;;;5012754;28;20498;-48
2024/01/13 03:31:32;;;;;;;51.95;27.27;;;0.60;99.90;;;;;;5012641;28;20034;-48
2024/01/13 03:33:57;;;;;;;47.53;24.92;;;0.70;99.90;;;;;;4994805;28;20021;-48
2024/01/13 03:36:23;;;;;;;53.25;26.90;;;0.70;99.90;;;;;;5012526;28;20037;-48
2024/01/13 03:38:48;;;;;;;41.25;24.35;;;0.70;99.90;;;;;;5012517;28;20108;-45
2024/01/13 03:41:17;;;;;;;46.88;26.05;;;0.70;99.90;;;;;;5012225;28;20037;-47
2024/01/13 03:43:43;;;;;;;49.15;25.35;;;0.70;99.90;;;;;;5012402;28;20022;-50
2024/01/13 03:46:09;;;;;;;45.33;26.67;;;0.70;99.90;;;;;;5012036;28;20064;-52
2024/01/13 03:48:34;;;;;;;47.15;26.10;;;0.80;99.90;;;;;;5012294;28;20022;-48
2024/01/13 03:51:00;;;;;;;48.88;26.05;;;0.80;99.90;;;;;;5012183;28;20503;-48
2024/01/13 03:53:25;;;;;;;46.05;26.63;;;0.80;99.90;;;;;;5010996;28;20033;-49
2024/01/13 03:55:51;;;;;;;49.40;25.60;;;0.80;99.90;;;;;;5012049;28;20034;-48
2024/01/13 03:58:16;;;;;;;47.67;25.33;;;0.80;99.90;;;;;;5012475;28;20421;-50
2024/01/13 04:00:42;;;;;;;46.65;25.40;;;0.70;99.90;;;;;;5012078;28;20043;-48
2024/01/13 04:03:07;;;;;;;47.47;25.63;;;0.70;99.90;;;;;;5011924;28;20458;-51
2024/01/13 04:05:34;;;;;;;48.90;26.05;;;0.70;99.90;;;;;;5012308;28;20100;-49
2024/01/13 04:08:00;;;;;;;52.78;25.95;;;0.80;99.90;;;;;;5012395;28;20480;-48
2024/01/13 04:10:26;;;;;;;51.90;27.05;;;0.90;99.90;;;;;;5012471;28;20105;-51
2024/01/13 04:12:51;;;;;;;48.10;26.98;;;0.90;99.90;;;;;;5011854;28;20113;-47
2024/01/13 04:15:17;;;;;;;44.38;25.52;;;1.00;99.90;;;;;;5011778;28;20029;-50
2024/01/13 04:17:42;;;;;;;50.42;26.58;;;1.00;99.90;;;;;;5011846;28;20021;-50
2024/01/13 04:20:08;;;;;;;52.30;27.65;;;1.10;99.90;;;;;;5011764;28;20045;-51
2024/01/13 04:22:34;;;;;;;48.03;27.70;;;1.20;99.90;;;;;;5011412;28;20413;-50
2024/01/13 04:24:59;;;;;;;56.15;27.67;;;1.20;99.90;;;;;;5011549;28;20029;-47
2024/01/13 04:27:25;;;;;;;45.55;25.00;;;1.30;99.90;;;;;;5012000;28;20084;-50
2024/01/13 04:29:50;;;;;;;47.83;26.95;;;1.20;99.90;;;;;;5011759;28;20029;-51
2024/01/13 04:32:15;;;;;;;46.05;26.17;;;1.20;99.90;;;;;;4994172;28;20050;-48
2024/01/13 04:34:41;;;;;;;50.85;27.15;;;1.10;99.90;;;;;;5011535;28;20401;-48
2024/01/13 04:37:06;;;;;;;48.05;26.25;;;1.10;99.90;;;;;;5011876;28;20037;-49
2024/01/13 04:39:32;;;;;;;48.35;27.27;;;0.90;99.90;;;;;;5011841;28;20566;-50
2024/01/13 04:41:57;;;;;;;53.67;26.15;;;0.90;99.90;;;;;;5011586;28;20026;-49
2024/01/13 04:44:23;;;;;;;54.20;28.58;;;0.90;99.90;;;;;;5011447;28;20068;-49
2024/01/13 04:46:48;;;;;;;51.63;28.27;;;0.90;99.90;;;;;;5011577;28;20034;-48
2024/01/13 04:49:14;;;;;;;50.53;26.60;;;0.90;99.90;;;;;;5011619;28;20026;-51
2024/01/13 04:51:39;;;;;;;49.60;26.70;;;0.90;99.90;;;;;;4994068;28;20053;-51
2024/01/13 04:54:05;;;;;;;51.25;27.05;;;0.90;99.90;;;;;;5011304;28;20040;-49
2024/01/13 04:56:30;;;;;;;52.13;26.58;;;0.90;99.90;;;;;;5011735;28;20512;-52
2024/01/13 04:58:56;;;;;;;53.95;29.63;;;1.00;99.90;;;;;;5011593;28;20379;-47
2024/01/13 05:01:21;;;;;;;56.78;28.85;;;1.00;99.90;;;;;;5011175;28;20065;-52
2024/01/13 05:03:47;;;;;;;53.22;27.98;;;0.90;99.90;;;;;;5011416;28;20033;-49
2024/01/13 05:06:15;;;;;;;53.72;27.85;;;0.90;99.90;;;;;;5011195;28;20030;-49
2024/01/13 05:08:42;;;;;;;57.33;28.17;;;0.80;99.90;;;;;;5011383;28;20024;-46
2024/01/13 05:11:07;;;;;;;49.35;26.77;;;0.80;99.90;;;;;;5011590;28;20030;-48
2024/01/13 05:13:33;;;;;;;55.70;27.70;;;0.80;99.90;;;;;;5011467;28;20041;-47
2024/01/13 05:15:58;;;;;;;57.72;28.65;;;0.90;99.90;;;;;;5011441;28;20474;-50
2024/01/13 05:18:24;;;;;;;47.38;26.88;;;0.80;99.90;;;;;;5011275;28;20068;-46
2024/01/13 05:20:49;;;;;;;49.92;25.42;;;0.80;99.90;;;;;;5011381;28;20058;-53
2024/01/13 05:23:15;;;;;;;53.15;27.13;;;0.70;99.90;;;;;;5011156;28;20030;-46
2024/01/13 05:25:40;;;;;;;57.88;28.58;;;0.70;99.90;;;;;;5011055;28;20064;-48
2024/01/13 05:28:06;;;;;;;54.45;28.13;;;0.80;99.90;;;;;;5011243;28;20114;-49
2024/01/13 05:30:34;;;;;;;57.25;28.42;;;0.70;99.90;;;;;;4994065;28;20025;-47
2024/01/13 05:33:01;;;;;;;58.45;30.42;;;0.70;99.90;;;;;;5011658;28;20032;-48
2024/01/13 05:35:26;;;;;;;54.83;28.23;;;0.80;99.90;;;;;;5014438;28;20030;-55
2024/01/13 05:37:52;;;;;;;57.15;27.65;;;0.70;99.90;;;;;;5015144;28;20025;-50
2024/01/13 05:40:19;;;;;;;52.85;27.77;;;0.80;99.90;;;;;;5015047;28;20026;-48
2024/01/13 05:42:45;;;;;;;52.05;27.70;;;0.80;99.90;;;;;;5014597;28;20109;-50
2024/01/13 05:45:11;;;;;;;51.88;29.50;;;0.80;99.90;;;;;;5014293;28;20140;-49
2024/01/13 05:47:36;;;;;;;47.13;25.95;;;0.70;99.90;;;;;;5014527;28;20124;-49
2024/01/13 05:50:02;;;;;;;54.38;27.38;;;0.70;99.90;;;;;;5014521;28;20378;-50
2024/01/13 05:52:28;;;;;;;51.53;27.58;;;0.70;99.90;;;;;;5014193;28;20513;-51
2024/01/13 05:54:53;;;;;;;53.35;26.98;;;0.60;99.90;;;;;;5014319;28;20482;-43
2024/01/13 05:57:19;;;;;;;51.75;27.30;;;0.60;99.90;;;;;;5014459;28;20040;-51
2024/01/13 05:59:44;;;;;;;50.55;27.70;;;0.60;99.90;;;;;;5014301;28;20101;-48
2024/01/13 06:02:10;;;;;;;55.30;27.80;;;0.60;99.90;;;;;;5014056;28;20042;-48
2024/01/13 06:04:35;;;;;;;58.47;27.00;;;0.60;99.90;;;;;;4996489;28;20029;-47
2024/01/13 06:07:04;;;;;;;48.75;26.13;;;0.70;99.90;;;;;;5014103;28;20057;-50
2024/01/13 06:09:30;;;;;;;50.50;27.92;;;0.70;99.90;;;;;;5014118;28;20033;-47
2024/01/13 06:11:56;;;;;;;58.17;26.95;;;0.60;99.90;;;;;;4996363;28;20025;-49
2024/01/13 06:14:21;;;;;;;58.53;24.77;;;0.50;99.90;;;;;;5013705;28;20025;-51
2024/01/13 06:16:47;;;;;;;55.30;28.35;;;0.50;99.90;;;;;;5014134;28;20061;-50
2024/01/13 06:19:12;;;;;;;51.92;26.92;;;0.60;99.90;;;;;;5013988;28;20049;-48
2024/01/13 06:21:42;;;;;;;57.60;29.33;;;0.60;99.90;;;;;;5013793;28;20036;-47
2024/01/13 06:24:08;;;;;;;54.53;27.73;;;0.60;99.90;;;;;;5013685;28;20447;-49
2024/01/13 06:26:38;;;;;;;55.90;27.98;;;0.60;99.90;;;;;;5013947;28;20567;-48
2024/01/13 06:29:04;;;;;;;45.60;25.63;;;0.60;99.90;;;;;;5014213;28;20018;-46
2024/01/13 06:31:30;;;;;;;50.67;27.40;;;0.50;99.90;;;;;;4996207;28;20026;-51
2024/01/13 06:33:55;;;;;;;47.75;28.05;;;0.60;99.90;;;;;;5013528;28;20084;-50
2024/01/13 06:36:21;;;;;;;53.85;27.67;;;0.60;99.90;;;;;;4995909;28;20065;-50
2024/01/13 06:38:46;;;;;;;59.47;28.42;;;0.60;99.90;;;;;;5013594;28;20081;-48
2024/01/13 06:41:11;;;;;;;53.50;27.77;;;0.60;99.90;;;;;;5013348;28;20095;-51
2024/01/13 06:43:37;;;;;;;52.78;27.10;;;0.60;99.90;;;;;;5013424;28;20490;-53
2024/01/13 06:46:02;;;;;;;50.55;28.02;;;0.60;99.90;;;;;;5012822;28;20056;-51
2024/01/13 06:48:28;;;;;;;45.85;25.05;;;0.60;99.90;;;;;;4996040;28;20029;-47
2024/01/13 06:50:53;;;;;;;50.60;26.50;;;0.60;99.90;;;;;;5013165;28;20508;-49
2024/01/13 06:53:19;;;;;;;56.63;27.13;;;0.60;99.90;;;;;;4995724;28;20032;-51
2024/01/13 06:55:44;;;;;;;43.22;23.77;;;0.60;99.90;;;;;;5013119;28;20037;-50
2024/01/13 06:58:10;;;;;;;47.38;26.42;;;0.60;99.90;;;;;;5013323;28;20101;-48
2024/01/13 07:00:37;;;;;;;51.45;24.95;;;0.70;99.90;;;;;;5013200;28;20417;-49
2024/01/13 07:03:03;;;;;;;52.50;25.65;;;0.70;99.90;;;;;;5013005;28;20030;-47
2024/01/13 07:05:28;;;;;;;48.00;25.30;;;0.70;99.90;;;;;;5013459;28;20056;-47
2024/01/13 07:07:55;;;;;;;47.38;25.15;;;0.70;99.90;;;;;;5013250;28;20045;-50
2024/01/13 07:10:20;;;;;;;51.08;25.00;;;0.70;99.90;;;;;;5012999;28;20433;-50
2024/01/13 07:12:47;;;;;;;47.42;24.95;;;0.70;99.90;;;;;;5012700;28;20030;-49
2024/01/13 07:15:12;;;;;;;44.60;24.70;;;0.70;99.90;;;;;;5012762;28;20455;-48
2024/01/13 07:17:38;;;;;;;49.47;24.17;;;0.70;99.90;;;;;;5012804;28;20058;-51
2024/01/13 07:20:04;;;;;;;46.63;24.27;;;0.80;99.90;;;;;;5012688;28;20064;-48
2024/01/13 07:22:31;;;;;;;46.05;23.58;;;0.80;99.90;;;;;;4995120;28;20030;-48
2024/01/13 07:24:56;;;;;;;43.22;22.60;;;0.80;99.90;;;;;;4995072;28;20070;-48
2024/01/13 07:27:22;;;;;;;44.45;23.38;;;0.80;99.90;;;;;;5012499;28;20030;-46
2024/01/13 07:29:48;;;;;;;45.97;23.63;;;0.80;99.90;;;;;;5012671;28;20076;-46
2024/01/13 07:32:13;;;;;;;43.50;23.58;;;0.80;99.90;;;;;;5012470;28;20052;-49
2024/01/13 07:34:41;;;;;;;41.42;21.98;;;0.80;99.90;;;;;;5012353;28;20028;-52
2024/01/13 07:37:06;;;;;;;38.17;21.88;;;0.80;99.90;;;;;;5012634;28;20096;-48
2024/01/13 07:39:32;;;;;;;42.95;24.10;;;0.70;99.90;;;;;;5012446;28;20061;-46
2024/01/13 07:41:57;;;;;;;43.33;21.83;;;0.70;99.90;;;;;;5012248;28;20474;-48
2024/01/13 07:44:23;;;;;;;46.53;23.73;;;0.70;99.90;;;;;;5012224;28;20040;-47
2024/01/13 07:46:48;;;;;;;41.72;22.80;;;0.80;99.90;;;;;;5012357;28;20521;-48
2024/01/13 07:49:14;;;;;;;47.80;22.92;;;0.90;99.90;;;;;;5012721;28;20033;-46
2024/01/13 07:51:39;;;;;;;45.95;22.70;;;0.80;99.90;;;;;;5012143;28;20061;-47
2024/01/13 07:54:06;;;;;;;44.60;23.52;;;0.80;99.90;;;;;;5012432;28;20022;-48
2024/01/13 07:56:32;;;;;;;40.83;22.15;;;0.80;99.90;;;;;;5011807;28;20101;-50
2024/01/13 07:58:57;;;;;;;38.80;22.65;;;0.80;99.90;;;;;;4994536;28;20129;-46
2024/01/13 08:01:22;;;;;;;43.33;21.80;;;0.80;99.90;;;;;;5012332;28;20041;-49
2024/01/13 08:03:48;;;;;;;39.50;21.63;;;0.80;99.90;;;;;;5011990;28;20092;-53
2024/01/13 08:06:13;;;;;;;41.85;22.77;;;0.80;99.90;;;;;;5011787;28;20370;-47
2024/01/13 08:08:39;;;;;;;39.88;20.92;;;0.80;99.90;;;;;;5012150;28;20033;-49
2024/01/13 08:11:04;;;;;;;40.10;21.95;;;0.80;99.90;;;;;;5011805;28;20057;-51
2024/01/13 08:13:30;;;;;;;40.17;21.38;;;0.80;99.90;;;;;;5012076;28;20022;-47
2024/01/13 08:15:55;;;;;;;38.35;22.30;;;0.90;99.90;;;;;;4994086;28;20118;-49
2024/01/13 08:18:24;;;;;;;39.47;21.17;;;0.90;99.90;;;;;;5011818;28;20061;-49
2024/01/13 08:20:50;;;;;;;41.55;20.23;;;0.90;99.90;;;;;;5011586;28;20025;-51
2024/01/13 08:23:15;;;;;;;41.38;21.13;;;0.90;99.90;;;;;;5012292;28;20520;-50
2024/01/13 08:25:41;;;;;;;44.83;22.33;;;0.90;99.90;;;;;;5012268;28;20041;-51
2024/01/13 08:28:06;;;;;;;39.88;21.60;;;0.80;99.90;;;;;;5011860;28;20033;-50
2024/01/13 08:30:32;;;;;;;42.70;21.30;;;0.90;99.90;;;;;;5011723;28;20026;-52
2024/01/13 08:32:58;;;;;;;38.60;20.98;;;0.80;99.90;;;;;;4993741;28;20497;-49
2024/01/13 08:35:23;;;;;;;39.72;22.25;;;0.80;99.90;;;;;;5012007;28;20026;-46
2024/01/13 08:37:51;;;;;;;37.85;20.88;;;0.80;99.90;;;;;;5012558;28;20038;-49
2024/01/13 08:40:17;;;;;;;39.90;20.20;;;0.80;99.90;;;;;;5011577;28;20107;-44
2024/01/13 08:42:42;;;;;;;40.80;20.77;;;0.80;99.90;;;;;;5011466;28;20030;-47
2024/01/13 08:45:08;;;;;;;40.90;21.58;;;0.80;99.90;;;;;;5011523;28;20033;-47
2024/01/13 08:47:34;;;;;;;39.22;21.27;;;0.80;99.90;;;;;;5011427;28;20401;-46
2024/01/13 08:49:59;;;;;;;38.85;20.67;;;0.80;99.90;;;;;;4994381;28;20020;-47
2024/01/13 08:52:25;;;;;;;35.95;20.63;;;0.80;99.90;;;;;;5011878;28;20026;-47
2024/01/13 08:54:51;;;;;;;38.85;21.00;;;0.80;99.90;;;;;;5011650;28;20068;-47
2024/01/13 08:57:16;;;;;;;40.05;20.60;;;0.80;99.90;;;;;;5011618;28;20056;-51
2024/01/13 08:59:42;;;;;;;42.53;21.45;;;0.80;99.90;;;;;;5011408;28;20026;-52
2024/01/13 09:02:08;;;;;;;37.33;19.92;;;0.80;99.90;;;;;;5011233;28;20048;-46
2024/01/13 09:04:34;;;;;;;40.13;20.48;;;0.90;99.90;;;;;;5011217;28;20022;-47
2024/01/13 09:06:59;;;;;;;42.00;20.33;;;0.80;99.90;;;;;;5011857;28;20053;-47
2024/01/13 09:09:25;;;;;;;39.08;20.70;;;0.80;99.90;;;;;;5014335;28;20037;-50
2024/01/13 09:11:50;;;;;;;39.25;20.70;;;0.90;99.90;;;;;;5015265;28;20041;-49
2024/01/13 09:14:16;;;;;;;35.90;21.05;;;1.00;99.90;;;;;;5021366;28;20044;-53
2024/01/13 09:16:43;;;;;;;40.45;19.67;;;1.00;99.90;;;;;;5023155;28;20441;-52
2024/01/13 09:19:09;;;;;;;36.33;19.38;;;1.10;99.90;;;;;;5023688;28;20072;-53
2024/01/13 09:21:35;;;;;;;40.28;20.70;;;1.00;99.90;;;;;;5022435;28;20030;-52
2024/01/13 09:24:00;;;;;;;36.38;19.30;;;1.20;99.90;;;;;;5018315;28;20034;-47
2024/01/13 09:26:26;;;;;;;38.50;19.70;;;1.20;99.90;;;;;;5015358;28;20030;-46
2024/01/13 09:28:52;;;;;;;40.38;19.17;;;1.20;99.90;;;;;;5015217;28;20350;-47
2024/01/13 09:31:17;;;;;;;37.50;19.90;;;1.10;99.90;;;;;;5014943;28;20030;-48
2024/01/13 09:33:43;;;;;;;42.95;20.40;;;1.10;99.90;;;;;;5015068;28;20180;-50
2024/01/13 09:36:08;;;;;;;38.33;20.50;;;1.10;99.90;;;;;;5014753;28;20034;-50
2024/01/13 09:38:34;;;;;;;36.47;18.42;;;1.10;99.90;;;;;;5014860;28;20076;-46
2024/01/13 09:40:59;;;;;;;35.50;18.58;;;1.10;99.90;;;;;;5015037;28;20466;-52
2024/01/13 09:43:33;;;;;;;34.83;20.00;;;1.10;99.90;;;;;;5014771;28;20026;-49
2024/01/13 09:45:59;;;;;;;34.55;19.63;;;1.20;99.90;;;;;;4997280;28;20033;-46
2024/01/13 09:48:25;;;;;;;35.58;17.30;;;1.30;99.90;;;;;;4997852;28;20057;-49
2024/01/13 09:50:52;;;;;;;43.70;20.77;;;1.30;99.90;;;;;;5014584;28;20084;-48
2024/01/13 09:53:28;;;;;;;39.00;19.33;;;1.20;99.90;;;;;;5015080;28;20553;-50
2024/01/13 09:56:08;;;;;;;37.22;18.83;;;1.20;99.90;;;;;;5014813;28;20058;-50
2024/01/13 09:58:34;;;;;;;35.08;18.92;;;1.30;99.90;;;;;;5014365;28;20422;-47
2024/01/13 10:01:00;;;;;;;34.53;19.48;;;1.20;99.90;;;;;;5014074;28;20108;-46
2024/01/13 10:03:26;;;;;;;33.28;17.85;;;1.30;99.90;;;;;;5014257;28;20125;-47
2024/01/13 10:05:54;;;;;;;38.70;19.77;;;1.20;99.90;;;;;;5014178;28;20042;-48
2024/01/13 10:08:30;;;;;;;36.47;18.05;;;1.20;99.90;;;;;;5014146;28;20249;-47
2024/01/13 10:10:55;;;;;;;34.38;20.60;;;1.30;99.90;;;;;;5012640;28;20018;-50
2024/01/13 10:13:21;;;;;;;36.42;18.15;;;1.40;99.90;;;;;;5014449;28;20033;-47
2024/01/13 10:15:47;;;;;;;37.13;17.88;;;1.30;99.90;;;;;;5013097;28;20018;-50
2024/01/13 10:18:13;;;;;;;33.42;16.88;;;1.30;99.90;;;;;;5014206;28;20018;-50
2024/01/13 10:20:39;;;;;;;34.90;18.08;;;1.30;99.90;;;;;;5014111;28;20041;-48
2024/01/13 10:23:05;;;;;;;32.63;17.48;;;1.40;99.90;;;;;;5013787;28;20030;-49
2024/01/13 10:25:30;;;;;;;37.90;19.13;;;1.40;99.90;;;;;;5014560;28;20044;-47
2024/01/13 10:27:56;;;;;;;29.67;16.15;;;1.50;99.90;;;;;;5014894;28;20065;-47
2024/01/13 10:30:22;;;;;;;30.10;16.45;;;1.50;99.90;;;;;;5013937;28;20089;-48
2024/01/13 10:32:47;;;;;;;29.75;16.70;;;1.50;99.90;;;;;;5013557;28;20022;-51
2024/01/13 10:35:17;;;;;;;27.77;16.67;;;1.60;99.90;;;;;;5013956;28;20043;-51
2024/01/13 10:37:42;;;;;;;28.33;16.02;;;1.60;99.90;;;;;;5013488;28;20441;-51
2024/01/13 10:40:09;;;;;;;33.20;17.65;;;1.70;99.90;;;;;;4996061;28;20030;-47
2024/01/13 10:42:37;;;;;;;31.13;17.48;;;1.70;99.90;;;;;;5014093;28;20406;-53
2024/01/13 10:45:09;;;;;;;28.90;15.02;;;1.60;99.90;;;;;;4995770;28;20053;-49
2024/01/13 10:47:40;;;;;;;22.83;13.68;;;1.60;99.90;;;;;;5013532;28;20026;-52
2024/01/13 10:50:06;;;;;;;26.67;15.52;;;1.60;99.90;;;;;;5013453;28;20397;-52
2024/01/13 10:53:11;;;;;;;24.52;13.95;;;1.60;99.90;;;;;;5013010;28;20026;-47
2024/01/13 10:55:39;;;;;;;23.50;14.00;;;1.60;99.90;;;;;;5013275;28;20041;-48
2024/01/13 10:58:05;;;;;;;24.48;14.13;;;1.60;99.90;;;;;;5013218;28;20109;-50
2024/01/13 11:00:31;;;;;;;19.17;12.23;;;1.70;99.90;;;;;;4995396;28;20030;-48
2024/01/13 11:02:59;;;;;;;21.95;11.65;;;1.80;99.90;;;;;;5013464;28;20159;-51
2024/01/13 11:05:28;;;;;;;13.27;8.73;;;1.80;99.90;;;;;;5013561;28;20037;-51
2024/01/13 11:07:54;;;;;;;11.43;7.40;;;1.80;99.90;;;;;;5013181;28;20100;-47
2024/01/13 11:10:28;;;;;;;9.18;6.97;;;1.80;99.90;;;;;;5013373;28;20021;-51
2024/01/13 11:13:10;;;;;;;11.93;7.57;;;1.90;99.90;;;;;;5012147;28;20401;-44
2024/01/13 11:15:43;;;;;;;9.40;6.22;;;1.90;99.90;;;;;;5013256;28;20045;-47
2024/01/13 11:18:12;;;;;;;9.70;6.93;;;2.00;99.90;;;;;;5013449;28;20099;-49
2024/01/13 11:21:03;;;;;;;9.63;7.00;;;2.00;99.90;;;;;;4995592;28;20036;-48
2024/01/13 11:23:44;;;;;;;9.20;5.90;;;2.10;99.90;;;;;;5012705;28;20494;-50
2024/01/13 11:26:11;;;;;;;6.85;5.20;;;2.20;99.90;;;;;;5012776;28;20026;-47
2024/01/13 11:28:51;;;;;;;10.23;6.00;;;2.20;99.90;;;;;;5012625;28;20021;-49
2024/01/13 11:31:28;;;;;;;11.30;8.13;;;2.20;99.90;;;;;;5010761;28;20531;-45
2024/01/13 11:33:54;;;;;;;9.30;6.85;;;2.20;99.90;;;;;;5012247;28;20026;-48
2024/01/13 11:36:20;;;;;;;8.07;6.38;;;2.20;99.90;;;;;;5012526;28;20034;-50
2024/01/13 11:38:46;;;;;;;10.23;7.05;;;2.10;99.90;;;;;;5012498;28;20536;-50
2024/01/13 11:41:12;;;;;;;11.40;6.35;;;2.10;99.90;;;;;;5012357;28;20100;-48
2024/01/13 11:43:39;;;;;;;8.73;6.00;;;2.10;99.90;;;;;;5012258;28;20324;-49
2024/01/13 11:46:10;;;;;;;8.27;6.53;;;2.00;99.90;;;;;;5012124;28;20486;-48
2024/01/13 11:48:38;;;;;;;10.35;6.43;;;2.10;99.90;;;;;;5012858;28;20054;-51
2024/01/13 11:51:08;;;;;;;10.40;7.20;;;2.10;99.90;;;;;;5010973;28;20025;-47
2024/01/13 11:53:42;;;;;;;9.23;6.88;;;2.10;99.90;;;;;;5012560;28;20456;-49
2024/01/13 11:56:10;;;;;;;9.65;7.43;;;2.10;99.90;;;;;;5012508;28;20026;-47
2024/01/13 11:58:37;;;;;;;11.65;8.25;;;2.10;99.90;;;;;;5012368;28;20473;-52
2024/01/13 12:01:05;;;;;;;13.80;8.00;;;2.10;99.90;;;;;;5011826;28;20028;-53
2024/01/13 12:03:30;;;;;;;10.88;7.60;;;2.10;99.90;;;;;;5012192;28;20037;-48
2024/01/13 12:05:57;;;;;;;10.82;7.88;;;2.00;99.90;;;;;;5011798;28;20052;-52
2024/01/13 12:08:26;;;;;;;8.13;6.72;;;2.00;99.90;;;;;;4994099;28;20038;-49
2024/01/13 12:10:53;;;;;;;7.38;6.55;;;2.00;99.90;;;;;;5011980;28;20036;-48
2024/01/13 12:13:21;;;;;;;10.30;7.45;;;2.10;99.90;;;;;;5010469;28;20036;-51
2024/01/13 12:15:47;;;;;;;9.65;7.30;;;2.10;99.90;;;;;;5011687;28;20022;-53
2024/01/13 12:18:27;;;;;;;12.20;6.18;;;2.20;99.90;;;;;;5011864;28;20100;-48
2024/01/13 12:20:59;;;;;;;9.98;6.30;;;2.20;99.90;;;;;;5011668;28;20029;-51
2024/01/13 12:23:25;;;;;;;10.35;6.20;;;2.10;99.90;;;;;;5010470;28;20026;-50
2024/01/13 12:25:51;;;;;;;9.38;6.15;;;2.10;99.90;;;;;;4994388;28;20095;-49
2024/01/13 12:28:17;;;;;;;7.55;5.28;;;2.20;99.90;;;;;;5012066;28;20026;-47
2024/01/13 12:30:44;;;;;;;6.55;5.28;;;2.20;99.90;;;;;;4994389;28;20075;-47
2024/01/13 12:33:11;;;;;;;9.45;5.40;;;2.20;99.90;;;;;;5011980;28;20479;-51